Olivia, Minnesota
Current Conditions -  °F | °C
As of 2:14 PM on Wednesday 28 Jan 2015 (Local Time) from KOVL Reporting Station
Haze Haze  
Wind Chill: 26°   Ceiling: 500
Heat Index: 32°   Visibility: 3mi
Dew Point: 32°   Wind: 7mph
Humidity: 100%   Direction: 150°SSE
Pressure: 29.76"   Gusts: NA
Location:  44.78°N, 94.99°W
Report Text: KOVL 282014Z AUTO 15006KT 3SM BR OVC005 00/00 A2976 RMK AO2
Loading
Personal Weather Stations






























Interactive Weather Map New forecast layout! Learn more

10-Day Weather Forecast

Advertisements
Track Severe Weather on mobile